createdAt,value
2019-03-22T05:18:11.896Z,99.90
2019-03-22T05:20:44.314Z,99.90
2019-03-22T05:23:16.899Z,99.90
2019-03-22T05:25:48.315Z,99.90
2019-03-22T05:28:18.602Z,99.90
2019-03-22T05:31:25.741Z,99.90
2019-03-22T05:33:55.918Z,99.90
2019-03-22T05:36:25.821Z,99.90
2019-03-22T05:38:55.858Z,99.90
2019-03-22T05:41:26.016Z,99.90
2019-03-22T05:43:56.108Z,99.90
2019-03-22T05:46:26.059Z,99.90
2019-03-22T05:48:56.009Z,99.90
2019-03-22T05:51:25.957Z,99.90
2019-03-22T05:53:55.983Z,99.90
2019-03-22T05:56:26.034Z,99.90
2019-03-22T05:58:56.257Z,99.90
2019-03-22T06:01:26.437Z,99.90
2019-03-22T06:03:57.032Z,99.90
2019-03-22T06:06:27.006Z,99.90
2019-03-22T06:08:56.963Z,99.90
2019-03-22T06:11:26.886Z,99.90
2019-03-22T06:14:09.278Z,99.90
2019-03-22T06:16:39.230Z,99.90
2019-03-22T06:19:09.187Z,99.90
2019-03-22T06:21:39.117Z,99.90
2019-03-22T06:24:09.160Z,99.90
2019-03-22T06:26:39.057Z,99.90
2019-03-22T06:29:09.007Z,99.90
2019-03-22T06:31:38.872Z,99.90
2019-03-22T06:34:08.898Z,99.90
2019-03-22T06:36:38.784Z,99.90
2019-03-22T06:39:10.248Z,99.90
2019-03-22T06:41:40.657Z,99.90
2019-03-22T06:44:10.587Z,99.90
2019-03-22T06:46:40.465Z,99.90
2019-03-22T06:49:10.368Z,99.90
2019-03-22T06:51:40.343Z,99.90
2019-03-22T06:54:10.255Z,99.90
2019-03-22T06:56:40.240Z,99.90
2019-03-22T06:59:10.146Z,99.90
2019-03-22T07:01:40.021Z,99.90
2019-03-22T07:04:09.906Z,99.90
2019-03-22T07:06:39.824Z,99.90
2019-03-22T07:09:10.409Z,99.90
2019-03-22T07:11:41.976Z,99.90
2019-03-22T07:14:12.046Z,99.90
2019-03-22T07:16:42.044Z,99.90
2019-03-22T07:19:11.927Z,99.90
2019-03-22T07:21:41.845Z,99.90
2019-03-22T07:24:13.379Z,99.90
2019-03-22T07:26:44.518Z,99.90
2019-03-22T07:29:14.447Z,99.90
2019-03-22T07:31:44.351Z,99.90
2019-03-22T07:34:14.231Z,99.90
2019-03-22T07:36:46.796Z,99.90
2019-03-22T07:39:15.773Z,99.90
2019-03-22T07:41:45.827Z,99.90
2019-03-22T07:44:15.719Z,99.90
2019-03-22T07:46:45.648Z,99.90
2019-03-22T07:49:15.631Z,99.90
2019-03-22T07:51:45.579Z,99.90
2019-03-22T07:54:15.607Z,99.90
2019-03-22T07:56:45.558Z,99.90
2019-03-22T07:59:15.517Z,99.90
2019-03-22T08:01:45.389Z,99.90
2019-03-22T08:04:15.266Z,99.90
2019-03-22T08:06:45.136Z,99.90
2019-03-22T08:09:15.023Z,99.90
2019-03-22T08:11:44.958Z,99.90
2019-03-22T08:14:16.416Z,99.90
2019-03-22T08:16:46.563Z,99.90
2019-03-22T08:19:16.566Z,99.90
2019-03-22T08:21:46.489Z,99.90
2019-03-22T08:24:16.397Z,99.90
2019-03-22T08:26:46.399Z,99.90
2019-03-22T08:29:16.386Z,99.90
2019-03-22T08:31:46.288Z,99.90
2019-03-22T08:34:30.924Z,99.90
2019-03-22T08:37:02.123Z,99.90
2019-03-22T08:39:32.149Z,99.90
2019-03-22T08:42:02.122Z,99.90
2019-03-22T08:44:32.069Z,99.90
2019-03-22T08:47:01.935Z,99.90
2019-03-22T08:49:31.991Z,99.90
2019-03-22T08:52:01.845Z,99.90
2019-03-22T08:54:31.799Z,99.90
2019-03-22T08:57:01.830Z,99.90
2019-03-22T08:59:31.686Z,99.90
2019-03-22T09:02:01.594Z,99.90
2019-03-22T09:04:31.563Z,99.90
2019-03-22T09:07:01.530Z,99.90
2019-03-22T09:09:40.915Z,99.90
2019-03-22T09:12:03.098Z,99.90
2019-03-22T09:14:33.152Z,99.90
2019-03-22T09:17:03.135Z,99.90
2019-03-22T09:19:33.041Z,99.90
2019-03-22T09:22:02.993Z,99.90
2019-03-22T09:24:39.049Z,99.90
2019-03-22T09:27:04.618Z,99.90
2019-03-22T09:29:34.594Z,99.90
2019-03-22T09:32:04.519Z,99.90
2019-03-22T09:34:34.459Z,99.90
2019-03-22T09:37:05.012Z,99.90
2019-03-22T09:39:34.974Z,99.90
2019-03-22T09:42:04.976Z,99.90
2019-03-22T09:44:43.319Z,99.90
2019-03-22T09:47:06.594Z,99.90
2019-03-22T09:49:36.550Z,99.90
2019-03-22T09:52:06.554Z,99.90
2019-03-22T09:54:36.589Z,99.90
2019-03-22T09:57:06.510Z,99.90
2019-03-22T09:59:36.491Z,99.90
2019-03-22T10:02:06.647Z,99.90
2019-03-22T10:04:36.609Z,99.90
2019-03-22T10:07:06.514Z,99.90
2019-03-22T10:09:36.390Z,99.90
2019-03-22T10:12:06.434Z,99.90
2019-03-22T10:14:36.379Z,99.90
2019-03-22T10:17:06.367Z,99.90
2019-03-22T10:19:36.274Z,99.90
2019-03-22T10:22:06.231Z,99.90
2019-03-22T10:24:36.194Z,99.90
2019-03-22T10:27:06.171Z,99.90
2019-03-22T10:29:36.055Z,99.90
2019-03-22T10:32:05.982Z,99.90
2019-03-22T10:34:35.960Z,99.90
2019-03-22T10:37:05.901Z,99.90
2019-03-22T10:39:35.838Z,99.90
2019-03-22T10:42:05.818Z,99.90
2019-03-22T10:44:35.833Z,99.90
2019-03-22T10:47:07.312Z,99.70
2019-03-22T10:49:37.304Z,99.30
2019-03-22T10:52:07.268Z,99.90
2019-03-22T10:54:37.179Z,98.60
2019-03-22T10:57:07.068Z,98.70
2019-03-22T10:59:36.992Z,97.60
2019-03-22T11:02:07.973Z,97.20
2019-03-22T11:04:38.006Z,96.20
2019-03-22T11:07:07.844Z,95.90
2019-03-22T11:09:37.760Z,95.00
2019-03-22T11:12:12.272Z,95.30
2019-03-22T11:14:39.259Z,94.30
2019-03-22T11:17:09.129Z,94.20
2019-03-22T11:19:39.029Z,92.30
2019-03-22T11:22:08.892Z,89.40
2019-03-22T11:24:38.780Z,83.10
2019-03-22T11:27:08.656Z,83.70
2019-03-22T11:29:38.549Z,82.80
2019-03-22T11:32:12.522Z,74.70
2019-03-22T11:34:40.017Z,74.60
2019-03-22T11:37:09.912Z,73.00
2019-03-22T11:39:39.820Z,72.70
2019-03-22T11:42:09.693Z,74.10
2019-03-22T11:44:39.592Z,71.50
2019-03-22T11:47:09.473Z,70.90
2019-03-22T11:49:39.324Z,70.20
2019-03-22T11:52:09.216Z,70.80
2019-03-22T11:54:39.098Z,68.90
2019-03-22T11:57:08.998Z,66.60
2019-03-22T11:59:38.862Z,64.30
2019-03-22T12:02:08.760Z,65.10
2019-03-22T12:04:38.641Z,66.20
2019-03-22T12:07:08.558Z,67.40
2019-03-22T12:09:38.772Z,67.40
2019-03-22T12:12:08.893Z,66.40
2019-03-22T12:14:38.965Z,65.90
2019-03-22T12:17:09.067Z,66.40
2019-03-22T12:19:39.235Z,66.30
2019-03-22T12:22:09.337Z,67.50
2019-03-22T12:24:39.517Z,63.50
2019-03-22T12:27:09.706Z,63.80
2019-03-22T12:29:39.570Z,64.60
2019-03-22T12:32:09.469Z,63.30
2019-03-22T12:34:39.408Z,63.20
2019-03-22T12:37:09.296Z,62.60
2019-03-22T12:39:39.164Z,63.70
2019-03-22T12:42:09.062Z,64.00
2019-03-22T12:44:38.916Z,64.10
2019-03-22T12:47:08.772Z,63.30
2019-03-22T12:49:38.640Z,62.20
2019-03-22T12:52:08.576Z,62.00
2019-03-22T12:54:38.449Z,62.60
2019-03-22T12:57:08.437Z,61.10
2019-03-22T12:59:38.354Z,60.80
2019-03-22T13:02:08.404Z,60.70
2019-03-22T13:04:38.260Z,62.10
2019-03-22T13:07:08.214Z,61.30
2019-03-22T13:09:58.999Z,60.80
2019-03-22T13:12:29.358Z,61.70
2019-03-22T13:14:59.609Z,62.30
2019-03-22T13:17:29.675Z,62.00
2019-03-22T13:19:59.674Z,60.80
2019-03-22T13:22:29.821Z,59.40
2019-03-22T13:24:59.973Z,60.50
2019-03-22T13:27:30.086Z,60.30
2019-03-22T13:30:06.374Z,60.40
2019-03-22T13:32:36.415Z,59.60
2019-03-22T13:35:10.955Z,58.70
2019-03-22T13:37:40.942Z,58.50
2019-03-22T13:40:10.961Z,58.40
2019-03-22T13:42:40.855Z,57.50
2019-03-22T13:45:10.869Z,57.60
2019-03-22T13:47:40.763Z,57.50
2019-03-22T13:50:28.853Z,57.00
2019-03-22T13:53:07.927Z,58.10
2019-03-22T13:56:10.284Z,57.40
2019-03-22T13:59:33.922Z,56.60
2019-03-22T14:02:03.868Z,55.60
2019-03-22T14:04:33.803Z,55.20
2019-03-22T14:07:03.834Z,56.00
2019-03-22T14:09:52.534Z,56.50
2019-03-22T14:12:22.415Z,56.20
2019-03-22T14:14:52.323Z,55.50
2019-03-22T14:17:22.472Z,54.50
2019-03-22T14:19:52.418Z,54.30
2019-03-22T14:22:22.343Z,54.00
2019-03-22T14:24:52.273Z,53.90
2019-03-22T14:27:22.187Z,54.30
2019-03-22T14:29:52.088Z,53.70
2019-03-22T14:32:22.005Z,53.10
2019-03-22T14:34:51.986Z,53.20
2019-03-22T14:37:21.891Z,53.60
2019-03-22T14:39:51.778Z,53.00
2019-03-22T14:42:21.760Z,53.00
2019-03-22T14:44:51.733Z,52.30
2019-03-22T14:47:21.676Z,52.50
2019-03-22T14:49:51.583Z,53.70
2019-03-22T14:52:21.504Z,52.60
2019-03-22T14:54:51.467Z,53.20
2019-03-22T14:57:21.488Z,52.90
2019-03-22T14:59:58.578Z,53.70
2019-03-22T15:02:23.131Z,52.80
2019-03-22T15:04:53.135Z,52.60
2019-03-22T15:07:23.100Z,52.40
2019-03-22T15:09:53.028Z,52.40
2019-03-22T15:12:23.210Z,52.20
2019-03-22T15:15:01.270Z,52.60
2019-03-22T15:18:16.266Z,53.80
2019-03-22T15:21:07.723Z,52.50
2019-03-22T15:24:03.212Z,52.50
2019-03-22T15:26:45.792Z,52.50
2019-03-22T15:29:33.649Z,52.60
2019-03-22T15:32:21.230Z,53.00
2019-03-22T15:35:08.708Z,53.60
2019-03-22T15:37:54.173Z,52.00
2019-03-22T15:40:24.126Z,52.70
2019-03-22T15:42:54.271Z,52.50
2019-03-22T15:45:24.189Z,52.60
2019-03-22T15:47:54.198Z,53.20
2019-03-22T15:50:24.110Z,53.10
2019-03-22T15:52:54.072Z,52.20
2019-03-22T15:55:24.047Z,52.20
2019-03-22T15:57:59.853Z,52.20
2019-03-22T16:00:30.069Z,52.70
2019-03-22T16:03:00.123Z,53.40
2019-03-22T16:05:30.184Z,52.90
2019-03-22T16:08:00.918Z,52.80
2019-03-22T16:10:30.849Z,52.60
2019-03-22T16:13:00.765Z,52.70
2019-03-22T16:15:30.692Z,52.90
2019-03-22T16:18:00.588Z,52.20
2019-03-22T16:20:30.525Z,52.60
2019-03-22T16:23:00.447Z,52.50
2019-03-22T16:25:30.395Z,52.60
2019-03-22T16:28:00.324Z,53.10
2019-03-22T16:30:30.221Z,53.60
2019-03-22T16:33:00.126Z,53.40
2019-03-22T16:35:30.089Z,53.70
2019-03-22T16:38:00.034Z,54.20
2019-03-22T16:40:29.971Z,54.30
2019-03-22T16:42:59.841Z,54.40
2019-03-22T16:45:37.718Z,54.70
2019-03-22T16:48:07.710Z,55.30
2019-03-22T16:50:37.666Z,55.80
2019-03-22T16:53:07.673Z,55.80
2019-03-22T16:55:37.589Z,56.00
2019-03-22T16:58:07.712Z,57.00
2019-03-22T17:00:37.746Z,57.90
2019-03-22T17:03:08.187Z,57.60
2019-03-22T17:05:38.268Z,57.10
2019-03-22T17:08:08.190Z,57.90
2019-03-22T17:10:38.072Z,58.70
2019-03-22T17:13:08.020Z,59.00
2019-03-22T17:15:38.052Z,58.90
2019-03-22T17:18:07.959Z,58.90
2019-03-22T17:20:37.866Z,59.00
2019-03-22T17:23:07.836Z,59.30
2019-03-22T17:25:37.757Z,59.40
2019-03-22T17:28:07.701Z,59.60
2019-03-22T17:30:37.654Z,60.10
2019-03-22T17:33:08.055Z,60.50
2019-03-22T17:35:38.045Z,61.00
2019-03-22T17:38:08.034Z,61.40
2019-03-22T17:40:37.977Z,63.30
2019-03-22T17:43:08.018Z,64.00
2019-03-22T17:45:37.968Z,64.30
2019-03-22T17:48:07.875Z,65.30
2019-03-22T17:50:37.900Z,67.40
2019-03-22T17:53:07.858Z,67.80
2019-03-22T17:55:37.752Z,68.60
2019-03-22T17:58:07.708Z,70.10
2019-03-22T18:00:37.970Z,70.70
2019-03-22T18:03:07.916Z,71.30
2019-03-22T18:05:38.058Z,72.00
2019-03-22T18:08:08.108Z,73.10
2019-03-22T18:10:38.305Z,74.60
2019-03-22T18:13:08.259Z,75.50
2019-03-22T18:15:38.833Z,77.00
2019-03-22T18:18:11.441Z,78.00
2019-03-22T19:04:18.348Z,91.90
2019-03-22T19:06:48.485Z,92.50
2019-03-22T19:09:18.482Z,92.90
2019-03-22T19:11:48.545Z,92.80
2019-03-22T19:14:18.917Z,93.20
2019-03-22T20:00:15.247Z,99.40
2019-03-22T20:50:03.528Z,99.90
2019-03-22T20:51:32.156Z,99.90
2019-03-22T20:57:19.240Z,99.90
2019-03-22T20:59:51.311Z,99.90
2019-03-22T21:02:34.843Z,99.90
2019-03-22T21:05:43.821Z,99.90
2019-03-22T21:08:26.473Z,99.90
2019-03-22T21:11:15.597Z,99.90
2019-03-22T21:13:50.336Z,99.90
2019-03-22T21:16:21.424Z,99.90
2019-03-22T21:18:52.447Z,99.90
2019-03-22T21:21:35.936Z,99.90
2019-03-22T21:24:02.509Z,99.90
2019-03-22T21:26:33.493Z,99.90
2019-03-22T21:29:04.211Z,99.90
2019-03-22T21:31:34.412Z,99.90
2019-03-22T21:34:04.668Z,99.90
2019-03-22T21:36:34.835Z,99.90
2019-03-22T21:39:06.417Z,99.90
2019-03-22T21:41:36.559Z,99.90
2019-03-22T21:44:06.624Z,99.90
2019-03-22T21:46:36.762Z,99.90
2019-03-22T21:49:06.863Z,99.90
2019-03-22T21:51:36.988Z,99.90
2019-03-22T21:54:07.092Z,99.90
2019-03-22T21:56:37.152Z,99.90
2019-03-22T21:59:07.185Z,99.90
2019-03-22T22:01:37.268Z,99.90
2019-03-22T22:04:07.371Z,99.90
2019-03-22T22:06:37.435Z,99.90
2019-03-22T22:09:08.105Z,99.90
2019-03-22T22:11:38.096Z,99.90
2019-03-22T22:14:08.092Z,99.90
2019-03-22T22:16:38.107Z,99.90
2019-03-22T22:19:08.146Z,99.90
2019-03-22T22:21:38.206Z,99.90
2019-03-22T22:24:08.343Z,99.90
2019-03-22T22:26:38.417Z,99.90
2019-03-22T22:29:08.599Z,99.90
2019-03-22T22:31:38.574Z,99.90
2019-03-22T22:34:08.594Z,99.90
2019-03-22T22:36:38.695Z,99.90
2019-03-22T22:39:08.938Z,99.90
2019-03-22T22:41:39.026Z,99.90
2019-03-22T22:44:09.054Z,99.90
2019-03-22T22:46:39.176Z,99.90
2019-03-22T22:49:09.150Z,99.90
2019-03-22T22:51:39.201Z,99.90
2019-03-22T22:54:09.179Z,99.90
2019-03-22T22:56:39.177Z,99.90
2019-03-22T22:59:09.112Z,99.90
2019-03-22T23:01:39.118Z,99.90
2019-03-22T23:04:09.160Z,99.90
2019-03-22T23:06:39.139Z,99.90
2019-03-22T23:09:09.195Z,99.90
2019-03-22T23:11:39.161Z,99.90
2019-03-22T23:14:09.067Z,99.90
2019-03-22T23:16:39.053Z,99.90
2019-03-22T23:19:09.128Z,99.90
2019-03-22T23:21:39.136Z,99.90
2019-03-22T23:24:09.125Z,99.90
2019-03-22T23:26:39.093Z,99.90
2019-03-22T23:29:09.065Z,99.90
2019-03-22T23:31:39.053Z,99.90
2019-03-22T23:34:09.090Z,99.90
2019-03-22T23:36:39.253Z,99.90
2019-03-22T23:39:09.738Z,99.90
2019-03-22T23:41:39.793Z,99.90
2019-03-22T23:44:09.922Z,99.90
2019-03-22T23:46:39.925Z,99.90
2019-03-22T23:49:09.925Z,99.90
2019-03-22T23:51:39.922Z,99.90
2019-03-22T23:54:09.891Z,99.90
2019-03-22T23:56:40.324Z,99.90
2019-03-22T23:59:10.383Z,99.90
